Time;durP1;ratioP1;P1;durP2;ratioP2;P2;SDS_P1;SDS_P2;PMS_P1;PMS_P2;Temp;Humidity;BMP_temperature;BMP_pressure;BME280_temperature;BME280_humidity;BME280_pressure;Samples;Min_cycle;Max_cycle;Signal;HPM_P1;HPM_P2
2022/04/13 00:01:08;;;;;;;4.95;2.58;;;;;;;;;;4916031;29;20484;-64
2022/04/13 00:03:34;;;;;;;4.22;2.63;;;;;;;;;;4915761;29;20103;-63
2022/04/13 00:05:59;;;;;;;7.28;2.78;;;;;;;;;;4915561;29;20037;-70
2022/04/13 00:08:25;;;;;;;5.60;2.70;;;;;;;;;;4915266;29;20079;-68
2022/04/13 00:10:51;;;;;;;8.32;2.78;;;;;;;;;;4915291;29;20403;-71
2022/04/13 00:13:17;;;;;;;5.03;2.67;;;;;;;;;;4915524;29;20090;-69
2022/04/13 00:15:43;;;;;;;5.93;3.03;;;;;;;;;;4915639;29;20031;-68
2022/04/13 00:18:09;;;;;;;9.32;2.63;;;;;;;;;;4915295;29;20036;-66
2022/04/13 00:20:36;;;;;;;4.50;2.75;;;;;;;;;;4930081;29;20395;-69
2022/04/13 00:23:02;;;;;;;8.70;3.05;;;;;;;;;;4914479;29;20028;-69
2022/04/13 00:25:28;;;;;;;5.78;2.65;;;;;;;;;;4914398;29;20036;-66
2022/04/13 00:27:55;;;;;;;4.70;2.95;;;;;;;;;;4914427;29;20550;-68
2022/04/13 00:30:21;;;;;;;5.32;3.08;;;;;;;;;;4914764;29;20468;-71
2022/04/13 00:32:47;;;;;;;4.90;2.92;;;;;;;;;;4913353;29;20032;-73
2022/04/13 00:35:12;;;;;;;5.85;2.65;;;;;;;;;;4915706;29;20032;-70
2022/04/13 00:37:39;;;;;;;4.57;2.60;;;;;;;;;;4916617;29;20391;-73
2022/04/13 00:40:06;;;;;;;5.82;2.85;;;;;;;;;;4918040;29;20107;-64
2022/04/13 00:42:32;;;;;;;6.80;3.25;;;;;;;;;;4920056;29;20464;-71
2022/04/13 00:44:59;;;;;;;14.27;3.55;;;;;;;;;;4919836;29;20028;-77
2022/04/13 00:47:25;;;;;;;10.52;3.65;;;;;;;;;;4919995;29;20043;-71
2022/04/13 00:49:51;;;;;;;8.02;3.10;;;;;;;;;;4919929;29;20032;-71
2022/04/13 00:52:19;;;;;;;6.72;2.88;;;;;;;;;;4919646;29;20040;-64
2022/04/13 00:54:48;;;;;;;4.35;2.63;;;;;;;;;;4918694;29;20039;-63
2022/04/13 00:57:17;;;;;;;5.28;3.40;;;;;;;;;;4912921;29;20032;-64
2022/04/13 00:59:45;;;;;;;4.35;3.10;;;;;;;;;;4918653;29;20059;-63
2022/04/13 01:02:12;;;;;;;9.55;3.33;;;;;;;;;;4918077;29;20031;-63
2022/04/13 01:04:40;;;;;;;8.90;3.28;;;;;;;;;;4918242;29;20546;-61
2022/04/13 01:07:09;;;;;;;6.82;3.47;;;;;;;;;;4918026;29;20024;-64
2022/04/13 01:09:36;;;;;;;12.88;4.50;;;;;;;;;;4918303;29;20067;-64
2022/04/13 01:12:03;;;;;;;11.88;5.20;;;;;;;;;;4918064;29;20036;-63
2022/04/13 01:14:29;;;;;;;8.35;4.93;;;;;;;;;;4918579;29;20068;-64
2022/04/13 01:16:55;;;;;;;9.77;5.30;;;;;;;;;;4917926;29;20024;-69
2022/04/13 01:19:21;;;;;;;14.02;5.03;;;;;;;;;;4918061;29;20048;-63
2022/04/13 01:21:53;;;;;;;9.23;5.05;;;;;;;;;;4917995;29;20403;-64
2022/04/13 01:24:21;;;;;;;9.93;5.00;;;;;;;;;;4914781;29;20086;-65
2022/04/13 01:26:47;;;;;;;9.77;5.10;;;;;;;;;;4911950;29;20024;-69
2022/04/13 01:29:13;;;;;;;7.80;4.80;;;;;;;;;;4897884;29;20032;-62
2022/04/13 01:31:40;;;;;;;7.00;4.07;;;;;;;;;;4897435;29;20400;-63
2022/04/13 01:34:07;;;;;;;8.20;4.85;;;;;;;;;;4897732;29;20032;-63
2022/04/13 01:36:33;;;;;;;8.13;4.50;;;;;;;;;;4909272;29;20400;-65
2022/04/13 01:39:00;;;;;;;12.02;5.30;;;;;;;;;;4917176;29;20039;-64
2022/04/13 01:41:26;;;;;;;8.73;5.65;;;;;;;;;;4917339;29;20048;-65
2022/04/13 01:43:51;;;;;;;15.38;6.10;;;;;;;;;;4918020;29;20110;-63
2022/04/13 01:46:17;;;;;;;13.80;5.75;;;;;;;;;;4910747;29;20032;-65
2022/04/13 01:48:43;;;;;;;10.85;5.72;;;;;;;;;;4915141;29;20036;-68
2022/04/13 01:51:09;;;;;;;12.43;6.03;;;;;;;;;;4915211;29;20056;-65
2022/04/13 01:53:35;;;;;;;12.75;5.55;;;;;;;;;;4915031;29;20477;-65
2022/04/13 01:56:01;;;;;;;10.70;5.63;;;;;;;;;;4910618;29;20036;-63
2022/04/13 01:58:27;;;;;;;9.15;5.60;;;;;;;;;;4915967;29;20618;-64
2022/04/13 02:00:56;;;;;;;15.90;6.47;;;;;;;;;;4916424;29;20391;-62
2022/04/13 02:03:23;;;;;;;13.23;6.80;;;;;;;;;;4916686;29;20063;-64
2022/04/13 02:05:52;;;;;;;10.35;5.97;;;;;;;;;;4916380;29;20028;-63
2022/04/13 02:08:19;;;;;;;12.88;6.70;;;;;;;;;;4917092;29;20051;-66
2022/04/13 02:10:45;;;;;;;12.20;5.85;;;;;;;;;;4916099;29;20032;-63
2022/04/13 02:13:11;;;;;;;17.92;6.18;;;;;;;;;;4917179;29;20044;-63
2022/04/13 02:15:38;;;;;;;14.32;6.20;;;;;;;;;;4916875;29;20034;-63
2022/04/13 02:18:05;;;;;;;12.48;6.55;;;;;;;;;;4917076;29;20032;-62
2022/04/13 02:20:31;;;;;;;10.70;5.68;;;;;;;;;;4916403;29;20062;-63
2022/04/13 02:22:57;;;;;;;8.30;5.90;;;;;;;;;;4916208;29;20563;-63
2022/04/13 02:25:23;;;;;;;8.50;5.50;;;;;;;;;;4917183;29;20115;-65
2022/04/13 02:27:49;;;;;;;13.88;5.55;;;;;;;;;;4914855;29;20135;-61
2022/04/13 02:30:15;;;;;;;8.93;5.93;;;;;;;;;;4908253;29;20032;-64
2022/04/13 02:32:45;;;;;;;7.63;5.45;;;;;;;;;;4902596;29;20181;-66
2022/04/13 02:35:13;;;;;;;9.52;5.72;;;;;;;;;;4912338;29;20040;-63
2022/04/13 02:37:40;;;;;;;26.42;8.73;;;;;;;;;;4897814;29;20056;-64
2022/04/13 02:40:07;;;;;;;12.23;5.88;;;;;;;;;;4902175;29;20388;-63
2022/04/13 02:42:33;;;;;;;7.22;5.20;;;;;;;;;;4904632;29;20401;-66
2022/04/13 02:45:00;;;;;;;9.60;5.97;;;;;;;;;;4914597;29;20071;-64
2022/04/13 02:47:27;;;;;;;8.95;6.03;;;;;;;;;;4905477;29;20048;-64
2022/04/13 02:49:54;;;;;;;12.05;7.03;;;;;;;;;;4906871;29;20037;-64
2022/04/13 02:52:21;;;;;;;31.83;8.25;;;;;;;;;;4901805;29;20099;-66
2022/04/13 02:54:47;;;;;;;11.73;6.03;;;;;;;;;;4904791;29;20395;-63
2022/04/13 02:57:13;;;;;;;10.20;6.30;;;;;;;;;;4895801;29;20032;-62
2022/04/13 02:59:39;;;;;;;10.05;6.80;;;;;;;;;;4895341;29;20277;-67
2022/04/13 03:02:04;;;;;;;13.25;7.20;;;;;;;;;;4907390;29;20028;-64
2022/04/13 03:04:34;;;;;;;9.40;6.00;;;;;;;;;;4917299;29;20032;-64
2022/04/13 03:07:00;;;;;;;12.38;7.15;;;;;;;;;;4915273;29;20505;-63
2022/04/13 03:09:26;;;;;;;17.30;6.90;;;;;;;;;;4909851;29;20044;-62
2022/04/13 03:11:52;;;;;;;17.83;7.43;;;;;;;;;;4913127;29;20118;-63
2022/04/13 03:14:18;;;;;;;14.43;7.22;;;;;;;;;;4916697;29;20468;-63
2022/04/13 03:16:44;;;;;;;10.98;6.18;;;;;;;;;;4914834;29;20127;-64
2022/04/13 03:19:10;;;;;;;14.52;6.90;;;;;;;;;;4908731;29;20148;-62
2022/04/13 03:21:36;;;;;;;24.17;8.43;;;;;;;;;;4897080;29;20044;-62
2022/04/13 03:24:01;;;;;;;13.02;7.22;;;;;;;;;;4896085;29;20028;-62
2022/04/13 03:26:28;;;;;;;10.52;5.90;;;;;;;;;;4896550;29;20037;-74
2022/04/13 03:28:54;;;;;;;19.23;6.45;;;;;;;;;;4907979;29;20031;-63
2022/04/13 03:31:20;;;;;;;16.95;6.63;;;;;;;;;;4911321;29;20032;-76
2022/04/13 03:33:45;;;;;;;18.40;7.93;;;;;;;;;;4894600;29;20388;-64
2022/04/13 03:36:11;;;;;;;20.33;7.57;;;;;;;;;;4894860;29;20139;-65
2022/04/13 03:38:37;;;;;;;22.00;7.80;;;;;;;;;;4896231;29;20038;-64
2022/04/13 03:41:03;;;;;;;12.68;6.45;;;;;;;;;;4913388;29;20036;-63
2022/04/13 03:43:29;;;;;;;20.08;6.72;;;;;;;;;;4907606;29;20372;-63
2022/04/13 03:45:55;;;;;;;17.95;8.63;;;;;;;;;;4901148;29;20036;-75
2022/04/13 03:48:20;;;;;;;10.95;6.63;;;;;;;;;;4913234;29;20107;-64
2022/04/13 03:50:46;;;;;;;29.45;7.60;;;;;;;;;;4912409;29;20048;-63
2022/04/13 03:53:12;;;;;;;33.47;8.20;;;;;;;;;;4914358;29;20033;-65
2022/04/13 03:55:38;;;;;;;24.77;7.68;;;;;;;;;;4899259;29;20033;-63
2022/04/13 03:58:04;;;;;;;12.30;5.40;;;;;;;;;;4895638;29;20020;-64
2022/04/13 04:00:30;;;;;;;22.70;6.75;;;;;;;;;;4905414;29;20436;-63
2022/04/13 04:02:56;;;;;;;30.27;8.02;;;;;;;;;;4913855;29;20475;-63
2022/04/13 04:05:22;;;;;;;13.93;4.85;;;;;;;;;;4914410;29;20051;-64
2022/04/13 04:07:49;;;;;;;11.55;5.30;;;;;;;;;;4915044;29;20024;-65
2022/04/13 04:10:15;;;;;;;13.85;4.90;;;;;;;;;;4916604;29;20036;-62
2022/04/13 04:12:41;;;;;;;7.10;4.45;;;;;;;;;;4920154;29;20031;-64
2022/04/13 04:15:09;;;;;;;13.77;5.13;;;;;;;;;;4918084;29;20468;-65
2022/04/13 04:17:36;;;;;;;14.90;5.32;;;;;;;;;;4915997;29;20043;-67
2022/04/13 04:20:03;;;;;;;31.45;7.82;;;;;;;;;;4916831;29;20036;-65
2022/04/13 04:22:29;;;;;;;17.40;6.88;;;;;;;;;;4921036;29;20436;-64
2022/04/13 04:24:55;;;;;;;15.30;4.95;;;;;;;;;;4921123;29;20036;-63
2022/04/13 04:27:21;;;;;;;13.80;4.57;;;;;;;;;;4919093;29;20369;-65
2022/04/13 04:29:47;;;;;;;9.75;4.07;;;;;;;;;;4917810;29;20539;-64
2022/04/13 04:32:12;;;;;;;6.75;3.83;;;;;;;;;;4916126;29;20032;-67
2022/04/13 04:34:39;;;;;;;6.90;4.45;;;;;;;;;;4919063;29;20052;-64
2022/04/13 04:37:04;;;;;;;10.45;3.90;;;;;;;;;;4908364;29;20040;-68
2022/04/13 04:39:30;;;;;;;15.55;5.88;;;;;;;;;;4900267;29;20041;-65
2022/04/13 04:41:56;;;;;;;8.45;4.28;;;;;;;;;;4899677;29;20077;-65
2022/04/13 04:44:22;;;;;;;13.70;5.10;;;;;;;;;;4900279;29;20048;-67
2022/04/13 04:46:48;;;;;;;17.75;6.25;;;;;;;;;;4915119;29;20405;-66
2022/04/13 04:49:14;;;;;;;12.88;4.60;;;;;;;;;;4918818;29;20042;-68
2022/04/13 04:51:40;;;;;;;17.73;5.15;;;;;;;;;;4917632;29;20408;-71
2022/04/13 04:54:06;;;;;;;11.13;5.00;;;;;;;;;;4919067;29;20042;-75
2022/04/13 04:56:33;;;;;;;12.95;5.57;;;;;;;;;;4912203;29;20091;-69
2022/04/13 04:58:59;;;;;;;16.55;5.72;;;;;;;;;;4898770;29;20043;-72
2022/04/13 05:01:25;;;;;;;21.58;6.50;;;;;;;;;;4901522;29;20032;-69
2022/04/13 05:03:51;;;;;;;42.55;8.15;;;;;;;;;;4933880;29;20036;-73
2022/04/13 05:06:22;;;;;;;12.85;5.13;;;;;;;;;;4914830;29;20024;-65
2022/04/13 05:08:49;;;;;;;26.48;7.55;;;;;;;;;;4900007;29;20056;-67
2022/04/13 05:11:16;;;;;;;40.67;10.55;;;;;;;;;;4898377;29;20095;-70
2022/04/13 05:13:45;;;;;;;25.25;7.10;;;;;;;;;;4899107;29;20056;-67
2022/04/13 05:16:12;;;;;;;25.10;8.00;;;;;;;;;;4899391;29;20376;-68
2022/04/13 05:18:39;;;;;;;24.15;7.15;;;;;;;;;;4912778;29;20059;-67
2022/04/13 05:21:05;;;;;;;19.05;5.45;;;;;;;;;;4916620;29;20096;-69
2022/04/13 05:23:30;;;;;;;19.90;5.50;;;;;;;;;;4916518;29;20040;-67
2022/04/13 05:25:57;;;;;;;36.72;8.45;;;;;;;;;;4916981;29;20035;-67
2022/04/13 05:28:23;;;;;;;20.92;6.43;;;;;;;;;;4914905;29;20476;-66
2022/04/13 05:30:49;;;;;;;25.00;7.53;;;;;;;;;;4913943;29;20019;-71
2022/04/13 05:33:15;;;;;;;27.10;10.43;;;;;;;;;;4917529;29;20063;-76
2022/04/13 05:35:41;;;;;;;17.67;9.00;;;;;;;;;;4917200;29;20030;-73
2022/04/13 05:38:07;;;;;;;16.88;6.60;;;;;;;;;;4915383;29;20502;-78
2022/04/13 05:40:33;;;;;;;17.27;6.13;;;;;;;;;;4917816;29;20115;-78
2022/04/13 05:42:59;;;;;;;20.20;6.35;;;;;;;;;;4916851;29;20145;-80
2022/04/13 05:45:25;;;;;;;13.82;5.30;;;;;;;;;;4919452;29;20471;-71
2022/04/13 05:47:51;;;;;;;23.95;7.50;;;;;;;;;;4921241;29;20068;-67
2022/04/13 05:50:17;;;;;;;26.20;7.22;;;;;;;;;;4917272;29;20076;-68
2022/04/13 05:52:44;;;;;;;27.63;8.93;;;;;;;;;;4917915;29;20368;-71
2022/04/13 05:55:10;;;;;;;32.78;10.73;;;;;;;;;;4934512;29;20043;-70
2022/04/13 05:57:36;;;;;;;45.92;10.15;;;;;;;;;;4916907;29;20028;-67
2022/04/13 06:00:03;;;;;;;29.88;8.70;;;;;;;;;;4917835;29;20156;-73
2022/04/13 06:02:30;;;;;;;34.15;9.27;;;;;;;;;;4916860;29;20039;-71
2022/04/13 06:04:56;;;;;;;17.70;6.13;;;;;;;;;;4917552;29;20028;-81
2022/04/13 06:07:22;;;;;;;17.90;7.38;;;;;;;;;;4917274;29;20044;-73
2022/04/13 06:09:47;;;;;;;27.95;8.15;;;;;;;;;;4916867;29;20111;-70
2022/04/13 06:12:22;;;;;;;22.15;8.23;;;;;;;;;;4901535;29;20476;-67
2022/04/13 06:14:50;;;;;;;20.77;5.70;;;;;;;;;;4911966;29;20072;-69
2022/04/13 06:17:16;;;;;;;13.45;5.53;;;;;;;;;;4908530;29;20112;-72
2022/04/13 06:19:43;;;;;;;21.27;7.32;;;;;;;;;;4903727;29;20124;-70
2022/04/13 06:22:09;;;;;;;17.90;6.25;;;;;;;;;;4909803;29;20024;-68
2022/04/13 06:24:35;;;;;;;17.83;7.35;;;;;;;;;;4934882;29;20090;-71
2022/04/13 06:27:00;;;;;;;17.92;7.20;;;;;;;;;;4935457;29;20028;-67
2022/04/13 06:29:26;;;;;;;15.07;5.88;;;;;;;;;;4912426;29;20396;-68
2022/04/13 06:31:52;;;;;;;22.75;7.75;;;;;;;;;;4909784;29;20040;-68
2022/04/13 06:34:18;;;;;;;10.30;4.80;;;;;;;;;;4915243;29;20044;-72
2022/04/13 06:36:44;;;;;;;12.43;4.53;;;;;;;;;;4915052;29;20400;-72
2022/04/13 06:39:09;;;;;;;14.88;5.50;;;;;;;;;;4917567;29;20040;-67
2022/04/13 06:41:35;;;;;;;8.55;4.00;;;;;;;;;;4915406;29;20368;-68
2022/04/13 06:44:02;;;;;;;9.77;3.80;;;;;;;;;;4908204;29;20078;-68
2022/04/13 06:46:28;;;;;;;8.00;4.15;;;;;;;;;;4898131;29;20048;-69
2022/04/13 06:48:54;;;;;;;11.40;4.63;;;;;;;;;;4915596;29;20044;-76
2022/04/13 06:51:20;;;;;;;12.15;4.38;;;;;;;;;;4915922;29;20098;-78
2022/04/13 06:53:45;;;;;;;12.50;4.40;;;;;;;;;;4916757;29;20036;-73
2022/04/13 06:56:11;;;;;;;5.88;2.97;;;;;;;;;;4903407;29;20029;-72
2022/04/13 06:58:37;;;;;;;6.20;3.50;;;;;;;;;;4897831;29;20043;-74
2022/04/13 07:01:04;;;;;;;8.75;3.00;;;;;;;;;;4913527;29;20028;-71
2022/04/13 07:03:30;;;;;;;5.68;2.75;;;;;;;;;;4897601;29;20407;-68
2022/04/13 07:05:56;;;;;;;7.63;2.90;;;;;;;;;;4896541;29;20033;-72
2022/04/13 07:08:21;;;;;;;8.50;2.35;;;;;;;;;;4906332;29;20050;-69
2022/04/13 07:10:47;;;;;;;7.10;2.65;;;;;;;;;;4916050;29;20447;-74
2022/04/13 07:13:14;;;;;;;4.47;3.30;;;;;;;;;;4914070;29;20036;-69
2022/04/13 07:15:40;;;;;;;5.97;2.63;;;;;;;;;;4901564;29;20028;-69
2022/04/13 07:18:06;;;;;;;6.40;2.45;;;;;;;;;;4901192;29;20547;-68
2022/04/13 07:20:32;;;;;;;6.78;3.00;;;;;;;;;;4907878;29;20024;-67
2022/04/13 07:22:58;;;;;;;7.13;2.63;;;;;;;;;;4906481;29;20492;-67
2022/04/13 07:25:24;;;;;;;11.45;2.78;;;;;;;;;;4906211;29;20037;-70
2022/04/13 07:27:50;;;;;;;8.02;2.90;;;;;;;;;;4908974;29;20051;-69
2022/04/13 07:30:17;;;;;;;9.63;2.65;;;;;;;;;;4914902;29;20111;-69
2022/04/13 07:32:45;;;;;;;6.43;2.70;;;;;;;;;;4903534;29;20032;-71
2022/04/13 07:35:11;;;;;;;7.10;2.90;;;;;;;;;;4910131;29;20033;-69
2022/04/13 07:37:39;;;;;;;8.13;3.10;;;;;;;;;;4895814;29;20037;-68
2022/04/13 07:40:11;;;;;;;6.30;2.67;;;;;;;;;;4903483;29;20088;-70
2022/04/13 07:42:37;;;;;;;9.18;2.55;;;;;;;;;;4915752;29;20456;-69
2022/04/13 07:45:04;;;;;;;9.68;3.70;;;;;;;;;;4915272;29;20024;-68
2022/04/13 07:47:31;;;;;;;8.10;2.95;;;;;;;;;;4898461;29;20502;-71
2022/04/13 07:49:57;;;;;;;12.25;3.40;;;;;;;;;;4897108;29;20027;-73
2022/04/13 07:52:23;;;;;;;5.93;2.40;;;;;;;;;;4896701;29;20384;-73
2022/04/13 07:54:49;;;;;;;3.60;2.70;;;;;;;;;;4901283;29;20052;-77
2022/04/13 07:57:15;;;;;;;4.40;2.38;;;;;;;;;;4906908;29;20496;-79
2022/04/13 07:59:42;;;;;;;4.47;2.13;;;;;;;;;;4901628;29;20123;-78
2022/04/13 08:02:09;;;;;;;7.97;2.78;;;;;;;;;;4919541;29;20048;-69
2022/04/13 08:04:35;;;;;;;9.63;2.88;;;;;;;;;;4906192;29;20028;-68
2022/04/13 08:07:01;;;;;;;6.50;2.47;;;;;;;;;;4897503;29;20119;-71
2022/04/13 08:09:27;;;;;;;5.57;2.47;;;;;;;;;;4903764;29;20060;-72
2022/04/13 08:11:53;;;;;;;9.85;3.03;;;;;;;;;;4901731;29;20037;-67
2022/04/13 08:14:20;;;;;;;11.98;3.00;;;;;;;;;;4903507;29;20040;-74
2022/04/13 08:16:46;;;;;;;8.40;2.97;;;;;;;;;;4906028;29;20040;-74
2022/04/13 08:19:12;;;;;;;5.35;2.60;;;;;;;;;;4903820;29;20099;-71
2022/04/13 08:21:38;;;;;;;7.85;3.55;;;;;;;;;;4899877;29;20060;-68
2022/04/13 08:24:05;;;;;;;5.55;2.72;;;;;;;;;;4903118;29;20476;-69
2022/04/13 08:26:32;;;;;;;4.60;1.90;;;;;;;;;;4907121;29;20032;-72
2022/04/13 08:28:58;;;;;;;11.07;2.60;;;;;;;;;;4902945;29;20535;-70
2022/04/13 08:31:24;;;;;;;5.18;2.00;;;;;;;;;;4910903;29;20132;-71
2022/04/13 08:33:50;;;;;;;5.25;2.60;;;;;;;;;;4924710;29;20040;-70
2022/04/13 08:36:17;;;;;;;3.97;2.15;;;;;;;;;;4905337;29;20036;-69
2022/04/13 08:38:43;;;;;;;6.07;1.80;;;;;;;;;;4905335;29;20036;-79
2022/04/13 08:41:15;;;;;;;8.05;2.58;;;;;;;;;;4892737;29;20039;-77
2022/04/13 08:43:51;;;;;;;2.88;1.80;;;;;;;;;;4893939;29;20043;-76
2022/04/13 08:46:27;;;;;;;4.40;2.15;;;;;;;;;;4895444;29;20041;-76
2022/04/13 08:48:56;;;;;;;2.65;1.90;;;;;;;;;;4894887;29;20055;-77
2022/04/13 08:51:24;;;;;;;3.85;2.10;;;;;;;;;;4893826;29;20052;-71
2022/04/13 08:54:10;;;;;;;6.43;2.38;;;;;;;;;;4895691;29;20032;-73
2022/04/13 08:56:39;;;;;;;12.27;3.20;;;;;;;;;;4898655;29;20493;-71
2022/04/13 08:59:16;;;;;;;5.00;2.80;;;;;;;;;;4909273;29;20032;-73
2022/04/13 09:01:57;;;;;;;5.38;2.13;;;;;;;;;;4918044;29;20028;-68
2022/04/13 09:04:26;;;;;;;6.78;2.72;;;;;;;;;;4917454;29;20036;-68
2022/04/13 09:06:59;;;;;;;5.35;2.45;;;;;;;;;;4912311;29;20021;-77
2022/04/13 09:09:33;;;;;;;5.47;2.40;;;;;;;;;;4914268;29;20032;-76
2022/04/13 09:12:00;;;;;;;7.43;2.38;;;;;;;;;;4906988;29;20431;-77
2022/04/13 09:14:29;;;;;;;6.32;2.63;;;;;;;;;;4899274;29;20442;-71
2022/04/13 09:16:59;;;;;;;6.00;3.00;;;;;;;;;;4897500;29;20041;-71
2022/04/13 09:19:25;;;;;;;7.30;2.35;;;;;;;;;;4913824;29;20040;-68
2022/04/13 09:21:55;;;;;;;4.30;2.05;;;;;;;;;;4908962;29;20043;-71
2022/04/13 09:24:22;;;;;;;3.47;2.10;;;;;;;;;;4917952;29;20047;-78
2022/04/13 09:26:48;;;;;;;5.38;2.50;;;;;;;;;;4916290;29;20034;-74
2022/04/13 09:29:14;;;;;;;6.03;2.20;;;;;;;;;;4931904;29;20043;-67
2022/04/13 09:31:39;;;;;;;3.67;2.15;;;;;;;;;;4906099;29;20059;-71
2022/04/13 09:34:06;;;;;;;5.10;2.53;;;;;;;;;;4916748;29;20036;-68
2022/04/13 09:36:32;;;;;;;4.95;2.15;;;;;;;;;;4916054;29;20080;-69
2022/04/13 09:38:59;;;;;;;6.13;2.00;;;;;;;;;;4918019;29;20087;-71
2022/04/13 09:41:35;;;;;;;5.22;1.85;;;;;;;;;;4901760;29;20028;-67
2022/04/13 09:44:02;;;;;;;3.63;1.77;;;;;;;;;;4904392;29;20132;-67
2022/04/13 09:46:30;;;;;;;5.22;1.88;;;;;;;;;;4911216;29;20025;-69
2022/04/13 09:49:25;;;;;;;6.38;1.95;;;;;;;;;;4911129;29;20028;-72
2022/04/13 09:51:51;;;;;;;6.68;2.03;;;;;;;;;;4905898;29;20055;-76
2022/04/13 09:54:24;;;;;;;5.07;1.92;;;;;;;;;;4904375;29;20119;-72
2022/04/13 09:56:50;;;;;;;6.22;2.50;;;;;;;;;;4910946;29;20361;-75
2022/04/13 09:59:30;;;;;;;8.45;1.90;;;;;;;;;;4908273;29;20337;-76
2022/04/13 10:01:57;;;;;;;6.90;2.10;;;;;;;;;;4911172;29;20036;-76
2022/04/13 10:04:31;;;;;;;6.88;1.95;;;;;;;;;;4908054;29;20072;-72
2022/04/13 10:07:13;;;;;;;;;;;;;;;;;;4906283;29;20037;-73
2022/04/13 10:09:38;;;;;;;8.48;2.00;;;;;;;;;;4905150;29;19997;-78
2022/04/13 10:12:04;;;;;;;6.65;2.58;;;;;;;;;;4915074;29;20032;-72
2022/04/13 10:14:31;;;;;;;7.72;3.13;;;;;;;;;;4901036;29;20044;-72
2022/04/13 10:17:12;;;;;;;5.28;2.25;;;;;;;;;;4912041;29;20029;-75
2022/04/13 10:19:39;;;;;;;4.65;1.95;;;;;;;;;;4913182;28;20100;-70
2022/04/13 10:22:05;;;;;;;3.28;1.90;;;;;;;;;;4897333;29;20032;-75
2022/04/13 10:24:37;;;;;;;6.93;2.35;;;;;;;;;;4897218;29;20060;-67
2022/04/13 10:27:15;;;;;;;3.83;2.08;;;;;;;;;;4898252;29;20028;-69
2022/04/13 10:29:44;;;;;;;4.35;1.63;;;;;;;;;;4915068;29;20039;-69
2022/04/13 10:32:13;;;;;;;6.03;1.80;;;;;;;;;;4901926;29;20029;-70
2022/04/13 10:34:47;;;;;;;4.70;1.65;;;;;;;;;;4907482;29;20501;-69
2022/04/13 10:37:15;;;;;;;4.88;1.80;;;;;;;;;;4914908;29;20079;-69
2022/04/13 10:39:41;;;;;;;9.13;2.30;;;;;;;;;;4915257;29;20039;-70
2022/04/13 10:42:10;;;;;;;5.18;2.10;;;;;;;;;;4916173;29;20040;-70
2022/04/13 10:44:37;;;;;;;5.13;2.05;;;;;;;;;;4899723;29;20034;-73
2022/04/13 10:47:05;;;;;;;7.18;2.30;;;;;;;;;;4901952;29;20036;-71
2022/04/13 10:49:53;;;;;;;4.05;2.33;;;;;;;;;;4915594;29;20016;-72
2022/04/13 10:52:55;;;;;;;4.68;1.80;;;;;;;;;;4915582;29;20050;-76
2022/04/13 10:55:22;;;;;;;6.57;2.20;;;;;;;;;;4900870;29;20044;-73
2022/04/13 10:57:57;;;;;;;3.40;2.00;;;;;;;;;;4909062;29;20117;-73
2022/04/13 11:00:25;;;;;;;6.10;2.33;;;;;;;;;;4916304;29;20091;-72
2022/04/13 11:03:04;;;;;;;6.60;2.28;;;;;;;;;;4915970;29;20383;-71
2022/04/13 11:05:31;;;;;;;7.78;2.25;;;;;;;;;;4915900;29;20080;-73
2022/04/13 11:08:26;;;;;;;9.00;2.33;;;;;;;;;;4901479;29;20039;-72
2022/04/13 11:10:53;;;;;;;5.15;2.33;;;;;;;;;;4897137;29;20040;-69
2022/04/13 11:13:19;;;;;;;5.78;1.95;;;;;;;;;;4895899;29;20029;-66
2022/04/13 11:15:49;;;;;;;5.90;2.05;;;;;;;;;;4904342;29;20216;-66
2022/04/13 11:18:17;;;;;;;9.00;2.15;;;;;;;;;;4916017;29;20033;-68
2022/04/13 11:20:58;;;;;;;4.90;2.40;;;;;;;;;;4896500;29;20032;-71
2022/04/13 11:23:54;;;;;;;9.52;2.10;;;;;;;;;;4913810;29;20130;-68
2022/04/13 11:26:35;;;;;;;7.47;2.60;;;;;;;;;;4916012;29;20040;-67
2022/04/13 11:29:09;;;;;;;5.65;2.78;;;;;;;;;;4915682;29;20523;-67
2022/04/13 11:32:07;;;;;;;5.47;2.00;;;;;;;;;;4909908;29;20360;-67
2022/04/13 11:34:43;;;;;;;6.20;1.95;;;;;;;;;;4912716;29;20396;-71
2022/04/13 11:37:13;;;;;;;5.97;2.47;;;;;;;;;;4913699;29;20037;-68
2022/04/13 11:40:03;;;;;;;4.85;1.95;;;;;;;;;;4926024;29;20043;-69
2022/04/13 11:42:49;;;;;;;6.85;2.65;;;;;;;;;;4896398;29;20064;-68
2022/04/13 11:45:18;;;;;;;4.15;2.10;;;;;;;;;;4926055;29;20056;-70
2022/04/13 11:47:50;;;;;;;6.03;1.85;;;;;;;;;;4911167;29;20052;-70
2022/04/13 11:50:19;;;;;;;6.03;1.80;;;;;;;;;;4908631;29;20131;-71
2022/04/13 11:52:49;;;;;;;5.63;1.90;;;;;;;;;;4912085;29;20051;-70
2022/04/13 11:55:20;;;;;;;7.53;2.35;;;;;;;;;;4912822;29;20123;-69
2022/04/13 11:57:55;;;;;;;8.18;2.45;;;;;;;;;;4915072;29;20039;-68
2022/04/13 12:00:41;;;;;;;8.15;1.65;;;;;;;;;;4914704;29;20031;-74
2022/04/13 12:03:20;;;;;;;5.93;2.03;;;;;;;;;;4902550;29;20040;-75
2022/04/13 12:05:59;;;;;;;4.63;2.30;;;;;;;;;;4899301;29;20044;-78
2022/04/13 12:08:48;;;;;;;7.20;2.20;;;;;;;;;;4894637;29;20045;-73
2022/04/13 12:11:16;;;;;;;5.53;1.80;;;;;;;;;;4929955;29;20068;-68
2022/04/13 12:13:56;;;;;;;4.65;2.00;;;;;;;;;;4921339;29;20028;-70
2022/04/13 12:16:33;;;;;;;9.65;2.20;;;;;;;;;;4915585;29;20111;-79
2022/04/13 12:19:09;;;;;;;3.67;2.08;;;;;;;;;;4900833;29;20486;-73
2022/04/13 12:21:38;;;;;;;7.10;2.17;;;;;;;;;;4895480;29;20391;-75
2022/04/13 12:24:06;;;;;;;6.38;2.13;;;;;;;;;;4895655;29;20436;-71
2022/04/13 12:26:41;;;;;;;6.90;1.90;;;;;;;;;;4896946;29;20092;-74
2022/04/13 12:29:17;;;;;;;6.40;3.10;;;;;;;;;;4914219;29;20047;-71
2022/04/13 12:31:54;;;;;;;7.00;2.42;;;;;;;;;;4909456;29;20491;-70
2022/04/13 12:34:27;;;;;;;5.78;2.00;;;;;;;;;;4909756;29;20037;-76
2022/04/13 12:36:58;;;;;;;11.32;6.28;;;;;;;;;;4896942;29;20073;-70
2022/04/13 12:39:34;;;;;;;8.85;3.70;;;;;;;;;;4898173;29;20039;-70
2022/04/13 12:42:03;;;;;;;4.75;1.88;;;;;;;;;;4899504;29;20066;-71
2022/04/13 12:44:29;;;;;;;4.13;2.28;;;;;;;;;;4912164;29;20229;-68
2022/04/13 12:47:06;;;;;;;7.80;2.15;;;;;;;;;;4901696;29;20039;-72
2022/04/13 12:49:35;;;;;;;7.13;2.45;;;;;;;;;;4916329;29;20179;-74
2022/04/13 12:52:01;;;;;;;6.60;2.35;;;;;;;;;;4916841;29;20131;-72
2022/04/13 12:54:28;;;;;;;5.70;1.80;;;;;;;;;;4918383;29;20428;-71
2022/04/13 12:56:55;;;;;;;10.02;2.70;;;;;;;;;;4932015;29;20036;-71
2022/04/13 12:59:24;;;;;;;11.07;2.65;;;;;;;;;;4917253;29;20075;-74
2022/04/13 13:01:54;;;;;;;4.32;2.28;;;;;;;;;;4909538;29;20032;-77
2022/04/13 13:04:22;;;;;;;4.15;2.30;;;;;;;;;;4910858;29;20072;-70
2022/04/13 13:07:08;;;;;;;3.60;1.98;;;;;;;;;;4908428;29;20538;-67
2022/04/13 13:09:37;;;;;;;7.32;2.38;;;;;;;;;;4917200;29;20064;-69
2022/04/13 13:12:05;;;;;;;6.07;2.40;;;;;;;;;;4916712;29;20032;-68
2022/04/13 13:14:36;;;;;;;13.18;2.15;;;;;;;;;;4917486;29;20368;-71
2022/04/13 13:17:24;;;;;;;7.90;2.13;;;;;;;;;;4916410;29;20059;-69
2022/04/13 13:19:54;;;;;;;6.68;1.83;;;;;;;;;;4913079;29;20052;-71
2022/04/13 13:22:28;;;;;;;4.47;1.90;;;;;;;;;;4899714;29;20036;-67
2022/04/13 13:24:54;;;;;;;4.80;2.10;;;;;;;;;;4905814;29;20388;-71
2022/04/13 13:27:25;;;;;;;5.68;1.80;;;;;;;;;;4905531;29;20064;-67
2022/04/13 13:29:52;;;;;;;7.15;1.88;;;;;;;;;;4907565;29;20079;-66
2022/04/13 13:32:20;;;;;;;8.38;2.00;;;;;;;;;;4910280;29;20036;-77
2022/04/13 13:34:57;;;;;;;6.53;1.95;;;;;;;;;;4914281;29;20119;-67
2022/04/13 13:37:47;;;;;;;7.03;1.88;;;;;;;;;;4908976;29;20043;-70
2022/04/13 13:40:40;;;;;;;12.10;2.90;;;;;;;;;;4911556;29;20051;-68
2022/04/13 13:43:26;;;;;;;5.30;2.10;;;;;;;;;;4897995;29;20112;-68
2022/04/13 13:45:53;;;;;;;4.13;2.05;;;;;;;;;;4910798;29;20048;-67
2022/04/13 13:48:25;;;;;;;5.65;2.00;;;;;;;;;;4901257;29;20037;-69
2022/04/13 13:50:53;;;;;;;5.28;1.98;;;;;;;;;;4912568;29;20041;-68
2022/04/13 13:53:23;;;;;;;5.40;1.90;;;;;;;;;;4907047;29;20289;-69
2022/04/13 13:55:53;;;;;;;6.38;2.40;;;;;;;;;;4898568;29;20043;-69
2022/04/13 13:58:20;;;;;;;7.32;2.05;;;;;;;;;;4897979;29;20040;-68
2022/04/13 14:00:46;;;;;;;6.15;2.10;;;;;;;;;;4899290;29;20472;-66
2022/04/13 14:03:12;;;;;;;5.43;2.10;;;;;;;;;;4912010;29;20479;-68
2022/04/13 14:05:40;;;;;;;7.07;1.73;;;;;;;;;;4918384;29;20036;-68
2022/04/13 14:08:09;;;;;;;3.97;1.92;;;;;;;;;;4916574;29;20040;-67
2022/04/13 14:10:38;;;;;;;4.38;2.00;;;;;;;;;;4908524;29;20025;-70
2022/04/13 14:13:09;;;;;;;3.88;1.92;;;;;;;;;;4899190;29;20119;-75
2022/04/13 14:15:36;;;;;;;2.47;1.80;;;;;;;;;;4899013;29;20120;-68
2022/04/13 14:18:03;;;;;;;3.10;1.80;;;;;;;;;;4918870;29;20345;-67
2022/04/13 14:20:29;;;;;;;4.30;1.73;;;;;;;;;;4917914;29;20048;-78
2022/04/13 14:22:55;;;;;;;7.38;1.80;;;;;;;;;;4902973;29;20032;-76
2022/04/13 14:25:23;;;;;;;4.88;1.40;;;;;;;;;;4909117;29;21302;-71
2022/04/13 14:27:53;;;;;;;2.63;1.75;;;;;;;;;;4921292;29;20125;-71
2022/04/13 14:30:20;;;;;;;4.68;1.65;;;;;;;;;;4913264;29;20062;-69
2022/04/13 14:32:47;;;;;;;2.80;1.60;;;;;;;;;;4940933;28;20437;-76
2022/04/13 14:35:14;;;;;;;3.80;1.70;;;;;;;;;;4915875;29;20372;-70
2022/04/13 14:37:40;;;;;;;3.88;1.60;;;;;;;;;;4914720;29;20032;-76
2022/04/13 14:40:08;;;;;;;3.90;1.77;;;;;;;;;;4916006;29;20086;-73
2022/04/13 14:42:36;;;;;;;5.38;1.80;;;;;;;;;;4915760;29;20388;-74
2022/04/13 14:45:06;;;;;;;3.20;1.75;;;;;;;;;;4916520;29;20032;-79
2022/04/13 14:47:32;;;;;;;4.72;1.88;;;;;;;;;;4923634;29;20027;-73